Time;durP1;ratioP1;P1;durP2;ratioP2;P2;SDS_P1;SDS_P2;PMS_P1;PMS_P2;Temp;Humidity;BMP_temperature;BMP_pressure;BME280_temperature;BME280_humidity;BME280_pressure;Samples;Min_cycle;Max_cycle;Signal;HPM_P1;HPM_P2
2022/09/17 00:00:34;;;;;;;0.57;0.20;;;;;;;18.19;88.82;100683.44;20721088;28;20395;-74
2022/09/17 00:10:38;;;;;;;0.32;0.13;;;;;;;18.26;88.70;100700.72;20720099;28;20129;-75
2022/09/17 00:20:42;;;;;;;1.10;0.30;;;;;;;18.11;88.76;100670.69;20717458;28;20050;-74
2022/09/17 00:30:44;;;;;;;0.30;0.20;;;;;;;18.25;88.83;100710.63;20717033;28;20057;-75
2022/09/17 00:40:46;;;;;;;1.13;0.28;;;;;;;18.13;88.61;100716.34;20718278;28;20107;-74
2022/09/17 00:50:47;;;;;;;0.32;0.20;;;;;;;18.24;88.71;100714.31;20717189;28;20455;-75
2022/09/17 01:00:49;;;;;;;0.55;0.22;;;;;;;18.13;88.78;100697.47;20714799;28;20069;-74
2022/09/17 01:11:11;;;;;;;1.38;0.68;;;;;;;18.20;88.66;100717.47;20715744;28;20137;-74
2022/09/17 01:21:35;;;;;;;0.60;0.15;;;;;;;18.23;88.76;100728.78;20697064;28;20405;-75
2022/09/17 01:32:00;;;;;;;0.20;0.20;;;;;;;18.22;88.66;100726.25;20776659;28;20110;-74
2022/09/17 01:42:19;;;;;;;0.30;0.20;;;;;;;17.54;88.38;100631.81;20791580;28;20119;-75
2022/09/17 01:52:22;;;;;;;1.40;0.40;;;;;;;18.22;88.72;100747.81;20692927;28;20054;-74
2022/09/17 02:02:29;;;;;;;0.30;0.20;;;;;;;18.22;88.69;100734.34;20710091;28;20049;-74
2022/09/17 02:12:34;;;;;;;0.77;0.20;;;;;;;18.05;88.54;100709.78;20709068;28;20104;-75
2022/09/17 02:22:41;;;;;;;0.77;0.28;;;;;;;18.09;88.49;100721.16;20709451;28;20053;-74
2022/09/17 02:32:43;;;;;;;0.63;0.20;;;;;;;18.20;88.41;100741.72;20712205;28;20054;-75
2022/09/17 02:43:29;;;;;;;1.42;0.60;;;;;;;18.20;88.44;100749.81;20714562;28;20053;-75
2022/09/17 02:53:37;;;;;;;;;;;;;;;18.20;88.64;100756.03;20634407;28;20148;-75
2022/09/17 03:03:40;;;;;;;0.40;0.40;;;;;;;18.04;88.69;100729.66;20724395;28;19921;-74
2022/09/17 03:13:42;;;;;;;0.80;0.40;;;;;;;18.17;88.47;100755.47;20802507;28;20053;-74
2022/09/17 03:23:45;;;;;;;0.70;0.30;;;;;;;18.17;88.71;100744.69;20801201;28;20406;-75
2022/09/17 03:33:47;;;;;;;0.80;0.30;;;;;;;18.17;88.40;100758.16;20783626;28;20068;-75
2022/09/17 03:43:49;;;;;;;0.38;0.28;;;;;;;17.94;88.61;100713.47;20799633;28;20457;-75
2022/09/17 03:53:53;;;;;;;0.30;0.20;;;;;;;18.17;88.46;100755.47;20716462;28;20233;-74
2022/09/17 04:03:54;;;;;;;0.70;0.20;;;;;;;18.17;88.45;100798.59;20699952;28;20080;-75
2022/09/17 04:13:56;;;;;;;0.65;0.40;;;;;;;18.16;88.46;100788.81;20716239;28;20517;-74
2022/09/17 04:23:58;;;;;;;0.80;0.20;;;;;;;18.14;88.48;100770.06;20715401;28;20086;-75
2022/09/17 04:34:00;;;;;;;0.63;0.30;;;;;;;18.14;88.36;100777.31;20698240;28;20446;-74
2022/09/17 04:44:01;;;;;;;0.68;0.32;;;;;;;18.14;88.17;100782.72;20714519;28;20053;-75
2022/09/17 04:54:03;;;;;;;0.30;0.30;;;;;;;18.14;88.36;100777.31;20696229;28;20049;-75
2022/09/17 05:04:04;;;;;;;0.38;0.20;;;;;;;18.13;88.27;100765.66;20695811;28;20056;-75
2022/09/17 05:14:06;;;;;;;1.05;0.40;;;;;;;18.13;88.31;100767.53;20694550;28;20060;-75
2022/09/17 05:24:08;;;;;;;0.60;0.40;;;;;;;18.13;88.23;100775.63;20711598;28;20053;-76
2022/09/17 05:34:09;;;;;;;0.45;0.25;;;;;;;18.11;88.17;100773.88;20711163;28;20058;-74
2022/09/17 05:44:11;;;;;;;0.63;0.17;;;;;;;17.95;88.09;100758.28;20693799;28;20053;-74
2022/09/17 05:54:18;;;;;;;0.28;0.20;;;;;;;18.05;88.21;100796.00;20777027;28;20384;-74
2022/09/17 06:04:19;;;;;;;0.82;0.20;;;;;;;18.12;88.29;100820.53;20775429;28;20041;-75
2022/09/17 06:14:21;;;;;;;1.33;0.32;;;;;;;18.04;88.02;100823.94;20775541;28;20053;-74
2022/09/17 06:24:22;;;;;;;0.43;0.20;;;;;;;18.10;88.20;100823.38;20808009;28;20128;-74
2022/09/17 06:34:24;;;;;;;0.43;0.32;;;;;;;18.11;88.16;100837.69;20791541;28;20053;-74
2022/09/17 06:44:25;;;;;;;0.32;0.30;;;;;;;18.10;88.10;100847.63;20807278;28;20045;-75
2022/09/17 06:54:27;;;;;;;0.40;0.40;;;;;;;18.00;87.95;100860.19;20807759;28;20044;-74
2022/09/17 07:04:28;;;;;;;0.55;0.30;;;;;;;18.09;87.94;100859.38;20807848;28;20049;-75
2022/09/17 07:14:30;;;;;;;0.50;0.20;;;;;;;18.09;88.06;100862.06;20804533;28;20111;-76
2022/09/17 07:24:32;;;;;;;0.20;0.20;;;;;;;18.10;88.12;100862.94;20773672;28;22006;-74
2022/09/17 07:34:33;;;;;;;0.63;0.30;;;;;;;18.05;87.86;100846.34;20783934;28;20060;-74
2022/09/17 07:44:36;;;;;;;1.80;0.88;;;;;;;17.94;87.98;100836.50;20783138;28;20080;-74
2022/09/17 07:54:37;;;;;;;0.32;0.22;;;;;;;18.09;88.05;100843.22;20798955;28;20536;-74
2022/09/17 08:04:41;;;;;;;0.20;0.13;;;;;;;18.01;87.83;100837.69;20781643;28;20042;-74
2022/09/17 08:14:43;;;;;;;0.32;0.25;;;;;;;18.03;87.78;100846.47;20780935;28;20037;-74
2022/09/17 08:24:44;;;;;;;0.10;0.10;;;;;;;18.11;87.91;100843.94;20800367;28;20119;-74
2022/09/17 08:34:46;;;;;;;0.88;0.38;;;;;;;18.16;87.84;100858.84;20799147;28;20444;-74
2022/09/17 08:44:47;;;;;;;0.63;0.30;;;;;;;18.18;87.63;100875.72;20799029;28;20092;-74
2022/09/17 08:54:59;;;;;;;0.40;0.20;;;;;;;18.15;87.66;100871.47;20798361;28;20049;-75
2022/09/17 09:05:02;;;;;;;0.50;0.20;;;;;;;18.15;87.54;100859.84;20798029;28;20545;-74
2022/09/17 09:15:07;;;;;;;0.73;0.22;;;;;;;18.17;87.38;100857.88;20795590;28;20107;-75
2022/09/17 09:25:08;;;;;;;;;;;;;;;18.19;87.40;100863.97;20796106;28;20045;-74
2022/09/17 09:35:26;;;;;;;0.52;0.20;;;;;;;18.17;87.41;100869.47;20796135;28;19974;-74
2022/09/17 09:45:40;;;;;;;0.65;0.30;;;;;;;18.17;87.35;100874.88;20794762;28;20578;-74
2022/09/17 09:56:09;;;;;;;1.13;0.23;;;;;;;18.18;87.57;100886.50;20804720;28;20045;-74
2022/09/17 10:06:12;;;;;;;0.52;0.30;;;;;;;17.94;87.42;100847.28;20810093;28;20461;-74
2022/09/17 10:16:17;;;;;;;0.50;0.25;;;;;;;18.17;87.34;100876.72;20808469;28;20042;-74
2022/09/17 10:26:21;;;;;;;0.27;0.20;;;;;;;18.16;87.58;100872.31;20810871;28;20045;-74
2022/09/17 10:36:39;;;;;;;0.30;0.20;;;;;;;18.13;87.45;100856.44;20807981;28;20322;-74
2022/09/17 10:46:41;;;;;;;1.17;0.40;;;;;;;18.16;87.32;100826.53;20808751;28;20058;-74
2022/09/17 10:56:53;;;;;;;0.25;0.20;;;;;;;18.15;87.50;100832.91;20807859;28;20049;-74
2022/09/17 11:07:17;;;;;;;0.52;0.20;;;;;;;18.18;87.49;100833.47;20725301;28;20045;-74
2022/09/17 11:17:27;;;;;;;0.20;0.20;;;;;;;18.17;87.54;100863.25;20804021;28;20056;-74
2022/09/17 11:27:33;;;;;;;0.28;0.20;;;;;;;18.16;87.35;100831.91;20805901;28;20041;-74
2022/09/17 11:37:39;;;;;;;0.57;0.22;;;;;;;18.15;87.30;100854.47;20803433;28;20557;-74
2022/09/17 11:47:45;;;;;;;0.60;0.25;;;;;;;18.14;87.37;100847.38;20721043;28;20104;-74
2022/09/17 11:57:48;;;;;;;1.13;0.40;;;;;;;18.15;87.27;100849.91;20703840;28;20581;-74
2022/09/17 12:08:19;;;;;;;0.43;0.40;;;;;;;18.15;87.27;100843.69;20703358;28;20569;-74
2022/09/17 12:18:39;;;;;;;0.20;0.20;;;;;;;18.15;87.24;100838.28;20693443;28;20052;-74
2022/09/17 12:28:54;;;;;;;0.25;0.20;;;;;;;18.13;87.38;100841.13;20800453;28;20103;-74
2022/09/17 12:39:33;;;;;;;0.80;0.20;;;;;;;18.15;87.25;100838.28;20800347;28;20140;-74
2022/09/17 12:49:53;;;;;;;0.30;0.30;;;;;;;18.14;87.30;100815.88;20799763;28;20056;-74
2022/09/17 13:00:04;;;;;;;0.32;0.20;;;;;;;18.06;87.34;100803.09;20797431;28;20414;-74
2022/09/17 13:10:11;;;;;;;0.57;0.22;;;;;;;18.13;87.27;100816.88;20795687;28;20053;-74
2022/09/17 13:20:22;;;;;;;0.33;0.27;;;;;;;18.14;87.26;100810.47;20797255;28;20041;-74
2022/09/17 13:30:23;;;;;;;0.35;0.10;;;;;;;18.08;87.34;100800.28;20779169;28;20545;-74
2022/09/17 13:40:33;;;;;;;0.90;0.20;;;;;;;18.14;87.29;100825.81;20794707;28;20048;-75
2022/09/17 13:50:37;;;;;;;0.60;0.10;;;;;;;18.14;87.30;100823.94;20794361;28;20046;-74
2022/09/17 14:00:57;;;;;;;0.30;0.20;;;;;;;18.15;87.29;100839.13;20777164;28;20053;-75
2022/09/17 14:11:01;;;;;;;0.63;0.20;;;;;;;18.10;87.07;100841.38;20714261;28;20077;-74
2022/09/17 14:21:09;;;;;;;0.55;0.20;;;;;;;18.13;87.06;100846.50;20695941;28;20049;-74
2022/09/17 14:31:17;;;;;;;0.40;0.20;;;;;;;17.99;87.17;100826.16;20792542;28;20053;-74
2022/09/17 14:41:24;;;;;;;0.10;0.10;;;;;;;18.11;87.12;100846.63;20782644;28;20141;-74
2022/09/17 14:51:28;;;;;;;0.35;0.22;;;;;;;18.00;87.12;100846.72;20789046;28;20057;-74
2022/09/17 15:01:30;;;;;;;0.43;0.25;;;;;;;18.13;87.08;100891.47;20726185;28;20052;-75
2022/09/17 15:11:40;;;;;;;0.50;0.35;;;;;;;17.84;87.04;100839.16;20723407;28;20532;-75
2022/09/17 15:21:48;;;;;;;0.52;0.20;;;;;;;18.11;87.15;100884.34;20724690;28;20510;-74
2022/09/17 15:31:49;;;;;;;0.30;0.20;;;;;;;18.11;87.09;100891.59;20722741;28;20080;-74
2022/09/17 15:41:57;;;;;;;0.80;0.20;;;;;;;18.11;87.19;100897.81;20721958;28;20527;-74
2022/09/17 15:52:31;;;;;;;0.25;0.20;;;;;;;18.10;87.03;100868.34;20720383;28;20565;-74
2022/09/17 16:02:33;;;;;;;1.20;0.35;;;;;;;18.06;87.03;100877.69;20665196;28;20113;-74
2022/09/17 16:12:35;;;;;;;0.20;0.17;;;;;;;18.09;87.10;100901.66;20716540;28;20053;-74
2022/09/17 16:22:36;;;;;;;0.80;0.30;;;;;;;18.01;87.08;100890.72;20683351;28;20054;-75
2022/09/17 16:32:38;;;;;;;0.82;0.20;;;;;;;18.01;87.03;100896.09;20698559;28;20403;-75
2022/09/17 16:42:39;;;;;;;0.40;0.22;;;;;;;18.07;87.01;100909.03;20715354;28;20060;-74
2022/09/17 16:52:41;;;;;;;0.90;0.35;;;;;;;18.07;86.97;100904.47;20714068;28;20361;-75
2022/09/17 17:02:43;;;;;;;0.22;0.20;;;;;;;18.07;87.10;100909.84;20695801;28;20045;-74
2022/09/17 17:12:45;;;;;;;0.63;0.40;;;;;;;18.07;87.05;100911.72;20699776;28;20383;-74
2022/09/17 17:22:50;;;;;;;0.52;0.20;;;;;;;18.05;87.02;100906.44;20712231;28;20420;-74
2022/09/17 17:32:52;;;;;;;0.60;0.20;;;;;;;18.04;87.12;100907.44;20710577;28;20112;-74
2022/09/17 17:42:53;;;;;;;0.20;0.10;;;;;;;18.05;87.04;100925.31;20694353;28;20046;-74
2022/09/17 17:52:55;;;;;;;0.63;0.25;;;;;;;17.83;87.15;100892.19;20709781;28;20054;-74
2022/09/17 18:02:56;;;;;;;0.82;0.52;;;;;;;18.04;87.13;100934.38;20709902;28;20058;-74
2022/09/17 18:12:58;;;;;;;0.98;0.47;;;;;;;18.03;87.18;100953.38;20711756;28;20565;-74
2022/09/17 18:23:00;;;;;;;1.08;0.20;;;;;;;18.02;87.27;100968.69;20723914;28;20379;-75
2022/09/17 18:33:01;;;;;;;0.70;0.20;;;;;;;18.03;87.09;100983.03;20706799;28;20064;-74
2022/09/17 18:43:02;;;;;;;0.55;0.20;;;;;;;18.01;87.05;100993.91;20807458;28;20498;-74
2022/09/17 18:53:04;;;;;;;0.65;0.20;;;;;;;17.87;87.17;100978.94;20806210;28;20124;-74
2022/09/17 19:03:06;;;;;;;0.55;0.20;;;;;;;18.00;87.10;101008.34;20805386;28;20103;-74
2022/09/17 19:13:07;;;;;;;0.80;0.28;;;;;;;17.97;86.97;101016.69;20804951;28;20049;-74
2022/09/17 19:23:09;;;;;;;0.13;0.13;;;;;;;18.00;87.06;101002.13;20804205;28;20111;-74
2022/09/17 19:33:10;;;;;;;0.30;0.20;;;;;;;18.00;87.12;101000.25;20802560;28;20065;-75
2022/09/17 19:43:13;;;;;;;0.45;0.15;;;;;;;17.99;87.13;101001.25;20788797;28;20112;-75
2022/09/17 19:53:15;;;;;;;0.38;0.35;;;;;;;17.98;87.04;101000.41;20701191;28;20050;-74
2022/09/17 20:03:16;;;;;;;0.73;0.20;;;;;;;17.97;86.96;100997.84;20701200;28;20064;-75
2022/09/17 20:13:18;;;;;;;0.77;0.30;;;;;;;17.88;86.99;100996.78;20716664;28;20552;-75
2022/09/17 20:23:20;;;;;;;0.25;0.13;;;;;;;17.96;86.99;100996.13;20715945;28;20054;-76
2022/09/17 20:33:21;;;;;;;0.38;0.20;;;;;;;17.90;87.20;100992.16;20698769;28;20564;-74
2022/09/17 20:43:24;;;;;;;0.57;0.28;;;;;;;17.96;86.93;101006.91;20698799;28;20053;-74
2022/09/17 20:53:28;;;;;;;0.65;0.30;;;;;;;17.94;86.90;101007.06;20712825;28;20048;-74
2022/09/17 21:03:29;;;;;;;0.40;0.20;;;;;;;17.94;87.12;101015.13;20695452;28;20042;-74
2022/09/17 21:13:31;;;;;;;0.10;0.10;;;;;;;17.95;86.95;101032.13;20693292;28;20117;-74
2022/09/17 21:23:34;;;;;;;0.75;0.45;;;;;;;17.94;86.93;101019.66;20694887;28;20133;-74
2022/09/17 21:33:36;;;;;;;0.52;0.30;;;;;;;17.92;86.95;101027.00;20711700;28;20080;-74
2022/09/17 21:43:38;;;;;;;0.70;0.20;;;;;;;17.94;86.72;101019.66;20694020;28;20046;-74
2022/09/17 21:53:41;;;;;;;0.50;0.20;;;;;;;17.94;86.88;101025.91;20692471;28;20053;-74
2022/09/17 22:03:43;;;;;;;0.25;0.20;;;;;;;17.94;87.05;101016.97;20696505;28;20050;-74
2022/09/17 22:13:53;;;;;;;1.02;0.50;;;;;;;17.90;86.96;101012.84;20709829;28;20054;-75
2022/09/17 22:23:56;;;;;;;0.30;0.10;;;;;;;17.92;86.94;101011.72;20709529;28;20052;-74
2022/09/17 22:33:58;;;;;;;0.20;0.15;;;;;;;17.82;86.60;100998.19;20713294;28;20132;-75
2022/09/17 22:44:04;;;;;;;0.63;0.20;;;;;;;17.91;86.96;100993.84;20712076;28;20049;-74
2022/09/17 22:54:08;;;;;;;0.20;0.20;;;;;;;17.78;86.90;100988.69;20694368;28;20050;-74
2022/09/17 23:04:09;;;;;;;0.32;0.20;;;;;;;17.91;86.80;100998.38;20704137;28;20104;-74
2022/09/17 23:14:12;;;;;;;0.45;0.30;;;;;;;17.90;86.69;100991.28;20725451;28;20080;-74
2022/09/17 23:24:18;;;;;;;0.30;0.17;;;;;;;17.90;86.61;100991.28;20724569;28;20092;-75
2022/09/17 23:34:19;;;;;;;0.80;0.28;;;;;;;17.74;86.92;100963.00;20703517;28;20136;-74
2022/09/17 23:44:21;;;;;;;0.52;0.20;;;;;;;17.64;86.87;100937.84;20702144;28;20038;-75
2022/09/17 23:54:22;;;;;;;0.15;0.10;;;;;;;17.83;86.93;100969.41;20700958;28;20056;-74
